Majesty of the Seas — C6FZ8 — position and weather

sailwx.info

Track history (hours):
 
Tides and Currents Weather Stations Pressure Air Temp Water Temp Dewpoint Dewpoint Depression Visibility Wind Speed Wind Dir Waves Ship Positions

Majesty of the Seas (Bahamas)

Last reported at 2018-May-14 21:51 UTC. Time now 2018-May-26 02:36 UTC.
Position N 27°46' W 082°31'.
Warning: this ship's position is 11 days out of date.

Length 268 m; draft 8 m.

Type: Ship. MMSI: 311734000.

Date/timePositionNaut miles runAvg speedWind from/ knotsBaromVisibWave heightAir tempDewpointWater temp
2018-May-14 21:51N 27°46' W 082°31'411.9
2018-May-14 21:30N 27°48' W 082°28'612.2
2018-May-14 21:00N 27°54' W 082°26'2 3.9
2018-May-14 20:26N 27°56' W 082°27'0 0.8
2018-May-14 19:59N 27°57' W 082°27'0 0.0
2018-May-14 19:29N 27°57' W 082°27'0 0.0
2018-May-14 18:59N 27°57' W 082°27'0 0.0
2018-May-14 18:29N 27°57' W 082°27'0 0.0
2018-May-14 17:59N 27°57' W 082°27'0 0.0
2018-May-14 17:29N 27°57' W 082°27'0 0.0
2018-May-14 16:59N 27°57' W 082°27'0 0.0
2018-May-14 16:29N 27°57' W 082°27'0 0.0
2018-May-14 15:59N 27°57' W 082°27'0 0.0
2018-May-14 15:26N 27°57' W 082°27'0 0.0
2018-May-14 14:56N 27°57' W 082°27'0 0.0
2018-May-14 14:29N 27°57' W 082°27'0 0.0
2018-May-14 13:59N 27°57' W 082°27'0 0.0
2018-May-14 13:29N 27°57' W 082°27'0 0.0
2018-May-14 12:59N 27°57' W 082°27'0 0.0
2018-May-14 12:26N 27°57' W 082°27'0 0.0
2018-May-14 11:53N 27°57' W 082°27'0 0.0
2018-May-14 11:29N 27°57' W 082°27'0 0.0
2018-May-14 10:53N 27°57' W 082°27'0 0.0
2018-May-14 10:29N 27°57' W 082°27'1 1.2
2018-May-14 10:00N 27°56' W 082°27'2 4.5
2018-May-14 09:30N 27°54' W 082°26'611.5
2018-May-14 09:00N 27°48' W 082°28'611.8
2018-May-14 08:30N 27°44' W 082°32'814.9
2018-May-14 08:00N 27°38' W 082°37'814.1
2018-May-14 07:26N 27°37' W 082°46'48615.4
2018-May-12 23:55N 20°29' W 086°59'0 0.0
2018-May-12 23:29N 20°29' W 086°59'0 0.0
2018-May-12 22:59N 20°29' W 086°59'0 0.0
2018-May-12 22:29N 20°29' W 086°59'0 0.0
2018-May-12 21:59N 20°29' W 086°59'0 0.0
2018-May-12 21:29N 20°29' W 086°59'0 0.0
2018-May-12 20:59N 20°29' W 086°59'0 0.0
2018-May-12 20:29N 20°29' W 086°59'0 0.0
2018-May-12 19:59N 20°29' W 086°59'0 0.0
2018-May-12 19:29N 20°29' W 086°59'0 0.0
2018-May-12 18:59N 20°29' W 086°59'0 0.0
2018-May-12 18:29N 20°29' W 086°59'0 0.0
2018-May-12 17:59N 20°29' W 086°59'0 0.0
2018-May-12 17:29N 20°29' W 086°59'0 0.0
2018-May-12 16:59N 20°29' W 086°59'0 0.0
2018-May-12 16:26N 20°29' W 086°59'0 0.0
2018-May-12 16:01N 20°29' W 086°59'1 2.7
2018-May-12 15:30N 20°30' W 086°59'4 7.6
2018-May-12 15:00N 20°34' W 086°58'611.6
2018-May-12 14:28N 20°38' W 086°54'13716.2
2018-May-12 06:00N 22°06' W 085°00'   130 / 161014.8 25.025.027.0
2018-May-10 00:00N 27°30' W 083°00'3014.9 350 / 211016.510.8 24.519.925.5
2018-May-09 21:59N 27°46' W 082°31'711.3
2018-May-09 21:21N 27°52' W 082°27'310.0
2018-May-09 21:00N 27°55' W 082°27'2 3.5
2018-May-09 20:30N 27°57' W 082°27'0 0.0
2018-May-09 19:54N 27°57' W 082°27'0 0.0
2018-May-09 19:27N 27°57' W 082°27'0 0.0
2018-May-09 18:57N 27°57' W 082°27'0 0.0
2018-May-09 18:27N 27°57' W 082°27'0 0.0
2018-May-09 17:51N 27°57' W 082°27'0 0.0
2018-May-09 17:18N 27°57' W 082°27'0 0.0
2018-May-09 17:00N 27°57' W 082°27'0 0.0
2018-May-09 16:27N 27°57' W 082°27'0 0.0
2018-May-09 15:51N 27°57' W 082°27'0 0.0
2018-May-09 15:24N 27°57' W 082°27'0 0.0
2018-May-09 15:00N 27°57' W 082°27'0 0.0
2018-May-09 14:09N 27°57' W 082°27'0 0.0
2018-May-09 14:00N 27°57' W 082°27'0 0.0
2018-May-09 12:30N 27°57' W 082°27'0 0.0
2018-May-09 11:57N 27°57' W 082°27'0 0.0
2018-May-09 11:30N 27°57' W 082°27'0 0.4
2018-May-09 11:01N 27°56' W 082°27'2 3.6
2018-May-09 10:30N 27°55' W 082°27'4 7.9
2018-May-09 10:01N 27°51' W 082°27'611.6
2018-May-09 09:30N 27°47' W 082°31'713.4
2018-May-09 09:01N 27°41' W 082°35'714.2
2018-May-09 08:30N 27°37' W 082°42'815.0
2018-May-09 08:00N 27°36' W 082°50'713.5
2018-May-09 07:30N 27°36' W 082°58'12016.0
2018-May-09 00:00N 25°36' W 083°12'178 9.1 010 / 161014.710.8 24.823.325.8
2018-May-08 04:26N 25°36' W 079°54'614.2
2018-May-08 04:00N 25°42' W 079°52'714.1
2018-May-08 03:30N 25°49' W 079°50'714.0
2018-May-08 03:00N 25°56' W 079°49'714.1
2018-May-08 02:30N 26°03' W 079°48'714.1
2018-May-08 02:00N 26°10' W 079°48'714.1
2018-May-08 01:30N 26°17' W 079°47'714.2
2018-May-08 01:00N 26°24' W 079°47'714.4
2018-May-08 00:30N 26°31' W 079°46'612.1
2018-May-08 00:00N 26°36' W 079°42'2515.9 060 / 121013.010.8 24.523.027.4
2018-May-07 22:25N 27°01' W 079°48'614.9
2018-May-07 21:59N 27°07' W 079°50'915.2
2018-May-07 21:23N 27°15' W 079°53'615.3
2018-May-07 20:58N 27°21' W 079°56'71 6.6
2018-May-07 10:12N 28°24' W 080°34'313.3
2018-May-07 09:57N 28°22' W 080°31'611.0
2018-May-07 09:23N 28°18' W 080°25'4914.4
2018-May-07 06:00N 27°42' W 079°48'5617.4 250 / 151012.6 23.019.927.0
2018-May-07 02:45N 26°47' W 079°33'718.3
2018-May-07 02:22N 26°41' W 079°29'719.4
2018-May-07 02:00N 26°36' W 079°24'4019.9
2018-May-07 00:00N 26°12' W 078°48'6 0.1 190 / 141013.410.8 25.022.826.5
2018-May-05 06:00N 26°18' W 078°48'   060 / 301012.6 24.019.427.0
Track history (hours):
 
Tides and Currents Weather Stations Pressure Air Temp Water Temp Dewpoint Dewpoint Depression Visibility Wind Speed Wind Dir Waves Ship Positions

Majesty of the Seas (Bahamas)

Last reported at 2018-May-14 21:51 UTC. Time now 2018-May-26 02:36 UTC.
Position N 27°46' W 082°31'.
Warning: this ship's position is 11 days out of date.

Length 268 m; draft 8 m.

Type: Ship. MMSI: 311734000.

Date/timePositionNaut miles runAvg speedWind from/ knotsBaromVisibWave heightAir tempDewpointWater temp
2018-May-14 21:51N 27°46' W 082°31'411.9
2018-May-14 21:30N 27°48' W 082°28'612.2
2018-May-14 21:00N 27°54' W 082°26'2 3.9
2018-May-14 20:26N 27°56' W 082°27'0 0.8
2018-May-14 19:59N 27°57' W 082°27'0 0.0
2018-May-14 19:29N 27°57' W 082°27'0 0.0
2018-May-14 18:59N 27°57' W 082°27'0 0.0
2018-May-14 18:29N 27°57' W 082°27'0 0.0
2018-May-14 17:59N 27°57' W 082°27'0 0.0
2018-May-14 17:29N 27°57' W 082°27'0 0.0
2018-May-14 16:59N 27°57' W 082°27'0 0.0
2018-May-14 16:29N 27°57' W 082°27'0 0.0
2018-May-14 15:59N 27°57' W 082°27'0 0.0
2018-May-14 15:26N 27°57' W 082°27'0 0.0
2018-May-14 14:56N 27°57' W 082°27'0 0.0
2018-May-14 14:29N 27°57' W 082°27'0 0.0
2018-May-14 13:59N 27°57' W 082°27'0 0.0
2018-May-14 13:29N 27°57' W 082°27'0 0.0
2018-May-14 12:59N 27°57' W 082°27'0 0.0
2018-May-14 12:26N 27°57' W 082°27'0 0.0
2018-May-14 11:53N 27°57' W 082°27'0 0.0
2018-May-14 11:29N 27°57' W 082°27'0 0.0
2018-May-14 10:53N 27°57' W 082°27'0 0.0
2018-May-14 10:29N 27°57' W 082°27'1 1.2
2018-May-14 10:00N 27°56' W 082°27'2 4.5
2018-May-14 09:30N 27°54' W 082°26'611.5
2018-May-14 09:00N 27°48' W 082°28'611.8
2018-May-14 08:30N 27°44' W 082°32'814.9
2018-May-14 08:00N 27°38' W 082°37'814.1
2018-May-14 07:26N 27°37' W 082°46'48615.4
2018-May-12 23:55N 20°29' W 086°59'0 0.0
2018-May-12 23:29N 20°29' W 086°59'0 0.0
2018-May-12 22:59N 20°29' W 086°59'0 0.0
2018-May-12 22:29N 20°29' W 086°59'0 0.0
2018-May-12 21:59N 20°29' W 086°59'0 0.0
2018-May-12 21:29N 20°29' W 086°59'0 0.0
2018-May-12 20:59N 20°29' W 086°59'0 0.0
2018-May-12 20:29N 20°29' W 086°59'0 0.0
2018-May-12 19:59N 20°29' W 086°59'0 0.0
2018-May-12 19:29N 20°29' W 086°59'0 0.0
2018-May-12 18:59N 20°29' W 086°59'0 0.0
2018-May-12 18:29N 20°29' W 086°59'0 0.0
2018-May-12 17:59N 20°29' W 086°59'0 0.0
2018-May-12 17:29N 20°29' W 086°59'0 0.0
2018-May-12 16:59N 20°29' W 086°59'0 0.0
2018-May-12 16:26N 20°29' W 086°59'0 0.0
2018-May-12 16:01N 20°29' W 086°59'1 2.7
2018-May-12 15:30N 20°30' W 086°59'4 7.6
2018-May-12 15:00N 20°34' W 086°58'611.6
2018-May-12 14:28N 20°38' W 086°54'13716.2
2018-May-12 06:00N 22°06' W 085°00'   130 / 161014.8 25.025.027.0
2018-May-10 00:00N 27°30' W 083°00'3014.9 350 / 211016.510.8 24.519.925.5
2018-May-09 21:59N 27°46' W 082°31'711.3
2018-May-09 21:21N 27°52' W 082°27'310.0
2018-May-09 21:00N 27°55' W 082°27'2 3.5
2018-May-09 20:30N 27°57' W 082°27'0 0.0
2018-May-09 19:54N 27°57' W 082°27'0 0.0
2018-May-09 19:27N 27°57' W 082°27'0 0.0
2018-May-09 18:57N 27°57' W 082°27'0 0.0
2018-May-09 18:27N 27°57' W 082°27'0 0.0
2018-May-09 17:51N 27°57' W 082°27'0 0.0
2018-May-09 17:18N 27°57' W 082°27'0 0.0
2018-May-09 17:00N 27°57' W 082°27'0 0.0
2018-May-09 16:27N 27°57' W 082°27'0 0.0
2018-May-09 15:51N 27°57' W 082°27'0 0.0
2018-May-09 15:24N 27°57' W 082°27'0 0.0
2018-May-09 15:00N 27°57' W 082°27'0 0.0
2018-May-09 14:09N 27°57' W 082°27'0 0.0
2018-May-09 14:00N 27°57' W 082°27'0 0.0
2018-May-09 12:30N 27°57' W 082°27'0 0.0
2018-May-09 11:57N 27°57' W 082°27'0 0.0
2018-May-09 11:30N 27°57' W 082°27'0 0.4
2018-May-09 11:01N 27°56' W 082°27'2 3.6
2018-May-09 10:30N 27°55' W 082°27'4 7.9
2018-May-09 10:01N 27°51' W 082°27'611.6
2018-May-09 09:30N 27°47' W 082°31'713.4
2018-May-09 09:01N 27°41' W 082°35'714.2
2018-May-09 08:30N 27°37' W 082°42'815.0
2018-May-09 08:00N 27°36' W 082°50'713.5
2018-May-09 07:30N 27°36' W 082°58'12016.0
2018-May-09 00:00N 25°36' W 083°12'178 9.1 010 / 161014.710.8 24.823.325.8
2018-May-08 04:26N 25°36' W 079°54'614.2
2018-May-08 04:00N 25°42' W 079°52'714.1
2018-May-08 03:30N 25°49' W 079°50'714.0
2018-May-08 03:00N 25°56' W 079°49'714.1
2018-May-08 02:30N 26°03' W 079°48'714.1
2018-May-08 02:00N 26°10' W 079°48'714.1
2018-May-08 01:30N 26°17' W 079°47'714.2
2018-May-08 01:00N 26°24' W 079°47'714.4
2018-May-08 00:30N 26°31' W 079°46'612.1
2018-May-08 00:00N 26°36' W 079°42'2515.9 060 / 121013.010.8 24.523.027.4
2018-May-07 22:25N 27°01' W 079°48'614.9
2018-May-07 21:59N 27°07' W 079°50'915.2
2018-May-07 21:23N 27°15' W 079°53'615.3
2018-May-07 20:58N 27°21' W 079°56'71 6.6
2018-May-07 10:12N 28°24' W 080°34'313.3
2018-May-07 09:57N 28°22' W 080°31'611.0
2018-May-07 09:23N 28°18' W 080°25'4914.4
2018-May-07 06:00N 27°42' W 079°48'5617.4 250 / 151012.6 23.019.927.0
2018-May-07 02:45N 26°47' W 079°33'718.3
2018-May-07 02:22N 26°41' W 079°29'719.4
2018-May-07 02:00N 26°36' W 079°24'4019.9
2018-May-07 00:00N 26°12' W 078°48'6 0.1 190 / 141013.410.8 25.022.826.5
2018-May-05 06:00N 26°18' W 078°48'   060 / 301012.6 24.019.427.0

Dump ship's entire track history